sensor_id;sensor_type;location;lat;lon;timestamp;temperature;humidity
46926;DHT22;32667;48.248;-1.700;2022-08-21T00:00:07;18.80;58.50
46926;DHT22;32667;48.248;-1.700;2022-08-21T00:02:33;18.70;58.50
46926;DHT22;32667;48.248;-1.700;2022-08-21T00:04:59;18.70;58.50
46926;DHT22;32667;48.248;-1.700;2022-08-21T00:07:25;18.70;58.50
46926;DHT22;32667;48.248;-1.700;2022-08-21T00:09:52;18.70;58.50
46926;DHT22;32667;48.248;-1.700;2022-08-21T00:12:19;18.60;58.50
46926;DHT22;32667;48.248;-1.700;2022-08-21T00:14:45;18.60;58.60
46926;DHT22;32667;48.248;-1.700;2022-08-21T00:17:11;18.60;58.60
46926;DHT22;32667;48.248;-1.700;2022-08-21T00:19:37;18.60;58.60
46926;DHT22;32667;48.248;-1.700;2022-08-21T00:22:03;18.50;58.60
46926;DHT22;32667;48.248;-1.700;2022-08-21T00:24:32;18.50;58.60
46926;DHT22;32667;48.248;-1.700;2022-08-21T00:26:58;18.50;58.60
46926;DHT22;32667;48.248;-1.700;2022-08-21T00:29:24;18.50;58.60
46926;DHT22;32667;48.248;-1.700;2022-08-21T00:31:52;18.50;58.50
46926;DHT22;32667;48.248;-1.700;2022-08-21T00:34:18;18.50;58.50
46926;DHT22;32667;48.248;-1.700;2022-08-21T00:36:44;18.50;58.50
46926;DHT22;32667;48.248;-1.700;2022-08-21T00:39:10;18.50;58.50
46926;DHT22;32667;48.248;-1.700;2022-08-21T00:41:38;18.50;58.40
46926;DHT22;32667;48.248;-1.700;2022-08-21T00:44:10;18.40;58.40
46926;DHT22;32667;48.248;-1.700;2022-08-21T00:46:37;18.40;58.40
46926;DHT22;32667;48.248;-1.700;2022-08-21T00:49:05;18.40;58.40
46926;DHT22;32667;48.248;-1.700;2022-08-21T00:51:53;18.40;58.40
46926;DHT22;32667;48.248;-1.700;2022-08-21T00:54:22;18.40;58.40
46926;DHT22;32667;48.248;-1.700;2022-08-21T00:56:54;18.40;58.40
46926;DHT22;32667;48.248;-1.700;2022-08-21T00:59:21;18.40;58.50
46926;DHT22;32667;48.248;-1.700;2022-08-21T01:01:49;18.30;58.50
46926;DHT22;32667;48.248;-1.700;2022-08-21T01:04:15;18.30;58.50
46926;DHT22;32667;48.248;-1.700;2022-08-21T01:06:42;18.30;58.40
46926;DHT22;32667;48.248;-1.700;2022-08-21T01:09:08;18.40;58.40
46926;DHT22;32667;48.248;-1.700;2022-08-21T01:11:34;18.40;58.40
46926;DHT22;32667;48.248;-1.700;2022-08-21T01:14:00;18.40;58.30
46926;DHT22;32667;48.248;-1.700;2022-08-21T01:16:26;18.40;58.20
46926;DHT22;32667;48.248;-1.700;2022-08-21T01:18:52;18.40;58.10
46926;DHT22;32667;48.248;-1.700;2022-08-21T01:21:21;18.50;58.10
46926;DHT22;32667;48.248;-1.700;2022-08-21T01:23:50;18.50;58.00
46926;DHT22;32667;48.248;-1.700;2022-08-21T01:26:20;18.50;58.00
46926;DHT22;32667;48.248;-1.700;2022-08-21T01:28:51;18.50;57.90
46926;DHT22;32667;48.248;-1.700;2022-08-21T01:31:22;18.50;57.90
46926;DHT22;32667;48.248;-1.700;2022-08-21T01:33:51;18.40;57.90
46926;DHT22;32667;48.248;-1.700;2022-08-21T01:36:19;18.40;58.00
46926;DHT22;32667;48.248;-1.700;2022-08-21T01:38:45;18.40;58.10
46926;DHT22;32667;48.248;-1.700;2022-08-21T01:41:13;18.40;58.10
46926;DHT22;32667;48.248;-1.700;2022-08-21T01:43:40;18.40;58.20
46926;DHT22;32667;48.248;-1.700;2022-08-21T01:46:06;18.30;58.10
46926;DHT22;32667;48.248;-1.700;2022-08-21T01:48:32;18.30;58.10
46926;DHT22;32667;48.248;-1.700;2022-08-21T01:50:58;18.30;58.10
46926;DHT22;32667;48.248;-1.700;2022-08-21T01:53:24;18.30;58.20
46926;DHT22;32667;48.248;-1.700;2022-08-21T01:55:50;18.20;58.20
46926;DHT22;32667;48.248;-1.700;2022-08-21T01:58:16;18.20;58.30
46926;DHT22;32667;48.248;-1.700;2022-08-21T02:00:42;18.20;58.30
46926;DHT22;32667;48.248;-1.700;2022-08-21T02:03:08;18.10;58.40
46926;DHT22;32667;48.248;-1.700;2022-08-21T02:05:34;18.10;58.40
46926;DHT22;32667;48.248;-1.700;2022-08-21T02:08:00;18.10;58.40
46926;DHT22;32667;48.248;-1.700;2022-08-21T02:10:29;18.00;58.40
46926;DHT22;32667;48.248;-1.700;2022-08-21T02:12:59;18.00;58.40
46926;DHT22;32667;48.248;-1.700;2022-08-21T02:15:27;18.00;58.50
46926;DHT22;32667;48.248;-1.700;2022-08-21T02:17:56;18.00;58.50
46926;DHT22;32667;48.248;-1.700;2022-08-21T02:20:29;18.00;58.50
46926;DHT22;32667;48.248;-1.700;2022-08-21T02:22:56;17.90;58.50
46926;DHT22;32667;48.248;-1.700;2022-08-21T02:25:23;17.90;58.50
46926;DHT22;32667;48.248;-1.700;2022-08-21T02:27:50;17.90;59.20
46926;DHT22;32667;48.248;-1.700;2022-08-21T02:30:29;17.80;58.50
46926;DHT22;32667;48.248;-1.700;2022-08-21T02:32:55;17.80;58.60
46926;DHT22;32667;48.248;-1.700;2022-08-21T02:35:22;17.70;58.60
46926;DHT22;32667;48.248;-1.700;2022-08-21T02:37:54;17.70;58.60
46926;DHT22;32667;48.248;-1.700;2022-08-21T02:40:24;17.70;58.70
46926;DHT22;32667;48.248;-1.700;2022-08-21T02:42:50;17.70;58.70
46926;DHT22;32667;48.248;-1.700;2022-08-21T02:45:17;17.70;58.70
46926;DHT22;32667;48.248;-1.700;2022-08-21T02:47:57;17.70;58.70
46926;DHT22;32667;48.248;-1.700;2022-08-21T02:50:29;17.70;58.70
46926;DHT22;32667;48.248;-1.700;2022-08-21T02:52:56;17.70;58.60
46926;DHT22;32667;48.248;-1.700;2022-08-21T02:55:25;17.70;58.60
46926;DHT22;32667;48.248;-1.700;2022-08-21T02:57:56;17.70;58.60
46926;DHT22;32667;48.248;-1.700;2022-08-21T03:00:24;17.70;58.60
46926;DHT22;32667;48.248;-1.700;2022-08-21T03:02:50;17.70;58.60
46926;DHT22;32667;48.248;-1.700;2022-08-21T03:05:17;17.70;58.90
46926;DHT22;32667;48.248;-1.700;2022-08-21T03:07:44;17.70;58.50
46926;DHT22;32667;48.248;-1.700;2022-08-21T03:10:11;17.70;58.50
46926;DHT22;32667;48.248;-1.700;2022-08-21T03:12:37;17.70;58.50
46926;DHT22;32667;48.248;-1.700;2022-08-21T03:15:08;17.70;58.60
46926;DHT22;32667;48.248;-1.700;2022-08-21T03:17:35;17.60;58.60
46926;DHT22;32667;48.248;-1.700;2022-08-21T03:20:01;17.60;58.60
46926;DHT22;32667;48.248;-1.700;2022-08-21T03:22:28;17.60;58.70
46926;DHT22;32667;48.248;-1.700;2022-08-21T03:24:54;17.60;58.70
46926;DHT22;32667;48.248;-1.700;2022-08-21T03:27:20;17.60;58.70
46926;DHT22;32667;48.248;-1.700;2022-08-21T03:29:46;17.60;58.70
46926;DHT22;32667;48.248;-1.700;2022-08-21T03:32:14;17.60;58.60
46926;DHT22;32667;48.248;-1.700;2022-08-21T03:34:39;17.60;58.60
46926;DHT22;32667;48.248;-1.700;2022-08-21T03:37:07;17.60;58.50
46926;DHT22;32667;48.248;-1.700;2022-08-21T03:39:34;17.60;58.50
46926;DHT22;32667;48.248;-1.700;2022-08-21T03:42:00;17.60;58.50
46926;DHT22;32667;48.248;-1.700;2022-08-21T03:44:26;17.70;58.50
46926;DHT22;32667;48.248;-1.700;2022-08-21T03:46:54;17.70;58.50
46926;DHT22;32667;48.248;-1.700;2022-08-21T03:49:24;17.70;58.50
46926;DHT22;32667;48.248;-1.700;2022-08-21T03:51:50;17.80;58.40
46926;DHT22;32667;48.248;-1.700;2022-08-21T03:54:15;17.80;58.40
46926;DHT22;32667;48.248;-1.700;2022-08-21T03:56:42;17.80;58.20
46926;DHT22;32667;48.248;-1.700;2022-08-21T03:59:07;17.90;58.20
46926;DHT22;32667;48.248;-1.700;2022-08-21T04:01:34;17.90;58.20
46926;DHT22;32667;48.248;-1.700;2022-08-21T04:03:59;17.90;58.20
46926;DHT22;32667;48.248;-1.700;2022-08-21T04:06:26;17.90;58.20
46926;DHT22;32667;48.248;-1.700;2022-08-21T04:08:52;17.80;58.20
46926;DHT22;32667;48.248;-1.700;2022-08-21T04:11:19;17.80;58.20
46926;DHT22;32667;48.248;-1.700;2022-08-21T04:13:45;17.80;58.30
46926;DHT22;32667;48.248;-1.700;2022-08-21T04:16:11;17.80;58.40
46926;DHT22;32667;48.248;-1.700;2022-08-21T04:18:37;17.70;58.40
46926;DHT22;32667;48.248;-1.700;2022-08-21T04:21:07;17.70;58.50
46926;DHT22;32667;48.248;-1.700;2022-08-21T04:23:35;17.70;58.50
46926;DHT22;32667;48.248;-1.700;2022-08-21T04:26:01;17.70;58.50
46926;DHT22;32667;48.248;-1.700;2022-08-21T04:28:28;17.70;58.40
46926;DHT22;32667;48.248;-1.700;2022-08-21T04:30:54;17.70;58.40
46926;DHT22;32667;48.248;-1.700;2022-08-21T04:33:21;17.70;58.40
46926;DHT22;32667;48.248;-1.700;2022-08-21T04:35:48;17.70;58.40
46926;DHT22;32667;48.248;-1.700;2022-08-21T04:38:14;17.70;58.40
46926;DHT22;32667;48.248;-1.700;2022-08-21T04:40:40;17.80;59.00
46926;DHT22;32667;48.248;-1.700;2022-08-21T04:43:09;17.80;58.30
46926;DHT22;32667;48.248;-1.700;2022-08-21T04:45:37;17.80;58.30
46926;DHT22;32667;48.248;-1.700;2022-08-21T04:48:10;17.80;58.20
46926;DHT22;32667;48.248;-1.700;2022-08-21T04:50:49;17.90;58.20
46926;DHT22;32667;48.248;-1.700;2022-08-21T04:53:22;17.80;58.20
46926;DHT22;32667;48.248;-1.700;2022-08-21T04:55:50;17.80;58.20
46926;DHT22;32667;48.248;-1.700;2022-08-21T04:58:19;17.80;58.20
46926;DHT22;32667;48.248;-1.700;2022-08-21T05:00:46;17.80;58.30
46926;DHT22;32667;48.248;-1.700;2022-08-21T05:03:12;17.80;58.20
46926;DHT22;32667;48.248;-1.700;2022-08-21T05:05:40;17.80;58.20
46926;DHT22;32667;48.248;-1.700;2022-08-21T05:08:07;17.80;58.20
46926;DHT22;32667;48.248;-1.700;2022-08-21T05:10:34;17.80;58.20
46926;DHT22;32667;48.248;-1.700;2022-08-21T05:13:03;17.90;58.20
46926;DHT22;32667;48.248;-1.700;2022-08-21T05:15:30;17.90;58.20
46926;DHT22;32667;48.248;-1.700;2022-08-21T05:17:57;17.80;58.20
46926;DHT22;32667;48.248;-1.700;2022-08-21T05:20:23;17.80;58.20
46926;DHT22;32667;48.248;-1.700;2022-08-21T05:22:51;17.80;58.30
46926;DHT22;32667;48.248;-1.700;2022-08-21T05:25:20;17.80;58.30
46926;DHT22;32667;48.248;-1.700;2022-08-21T05:27:46;17.80;58.40
46926;DHT22;32667;48.248;-1.700;2022-08-21T05:30:13;17.80;58.40
46926;DHT22;32667;48.248;-1.700;2022-08-21T05:32:39;17.80;58.40
46926;DHT22;32667;48.248;-1.700;2022-08-21T05:35:06;17.80;58.30
46926;DHT22;32667;48.248;-1.700;2022-08-21T05:37:32;17.80;58.40
46926;DHT22;32667;48.248;-1.700;2022-08-21T05:39:59;17.80;58.40
46926;DHT22;32667;48.248;-1.700;2022-08-21T05:42:25;17.80;58.40
46926;DHT22;32667;48.248;-1.700;2022-08-21T05:44:51;17.80;58.40
46926;DHT22;32667;48.248;-1.700;2022-08-21T05:47:17;17.80;58.40
46926;DHT22;32667;48.248;-1.700;2022-08-21T05:49:42;17.70;58.40
46926;DHT22;32667;48.248;-1.700;2022-08-21T05:52:08;17.70;58.40
46926;DHT22;32667;48.248;-1.700;2022-08-21T05:54:37;17.70;58.40
46926;DHT22;32667;48.248;-1.700;2022-08-21T05:57:03;17.70;58.40
46926;DHT22;32667;48.248;-1.700;2022-08-21T05:59:29;17.70;58.40
46926;DHT22;32667;48.248;-1.700;2022-08-21T06:01:54;17.80;58.30
46926;DHT22;32667;48.248;-1.700;2022-08-21T06:04:20;17.90;58.30
46926;DHT22;32667;48.248;-1.700;2022-08-21T06:06:46;17.90;58.20
46926;DHT22;32667;48.248;-1.700;2022-08-21T06:09:13;18.00;58.10
46926;DHT22;32667;48.248;-1.700;2022-08-21T06:11:39;18.00;58.00
46926;DHT22;32667;48.248;-1.700;2022-08-21T06:14:05;18.00;57.90
46926;DHT22;32667;48.248;-1.700;2022-08-21T06:16:32;18.10;57.90
46926;DHT22;32667;48.248;-1.700;2022-08-21T06:19:00;18.10;57.80
46926;DHT22;32667;48.248;-1.700;2022-08-21T06:21:26;18.20;57.80
46926;DHT22;32667;48.248;-1.700;2022-08-21T06:23:54;18.20;57.70
46926;DHT22;32667;48.248;-1.700;2022-08-21T06:26:21;18.20;57.70
46926;DHT22;32667;48.248;-1.700;2022-08-21T06:28:49;18.30;57.60
46926;DHT22;32667;48.248;-1.700;2022-08-21T06:31:18;18.40;57.50
46926;DHT22;32667;48.248;-1.700;2022-08-21T06:33:44;18.40;57.40
46926;DHT22;32667;48.248;-1.700;2022-08-21T06:36:10;18.40;57.60
46926;DHT22;32667;48.248;-1.700;2022-08-21T06:38:37;18.30;57.80
46926;DHT22;32667;48.248;-1.700;2022-08-21T06:41:04;18.30;57.80
46926;DHT22;32667;48.248;-1.700;2022-08-21T06:43:30;18.30;57.90
46926;DHT22;32667;48.248;-1.700;2022-08-21T06:45:56;18.30;57.90
46926;DHT22;32667;48.248;-1.700;2022-08-21T06:48:22;18.40;57.80
46926;DHT22;32667;48.248;-1.700;2022-08-21T06:50:48;18.40;57.70
46926;DHT22;32667;48.248;-1.700;2022-08-21T06:53:17;18.50;57.70
46926;DHT22;32667;48.248;-1.700;2022-08-21T06:55:44;18.50;57.60
46926;DHT22;32667;48.248;-1.700;2022-08-21T06:58:10;18.50;57.60
46926;DHT22;32667;48.248;-1.700;2022-08-21T07:00:40;18.60;57.50
46926;DHT22;32667;48.248;-1.700;2022-08-21T07:03:06;18.70;57.50
46926;DHT22;32667;48.248;-1.700;2022-08-21T07:05:32;18.70;57.40
46926;DHT22;32667;48.248;-1.700;2022-08-21T07:07:58;18.80;57.30
46926;DHT22;32667;48.248;-1.700;2022-08-21T07:10:25;18.90;57.20
46926;DHT22;32667;48.248;-1.700;2022-08-21T07:12:51;18.90;57.30
46926;DHT22;32667;48.248;-1.700;2022-08-21T07:15:19;18.90;57.40
46926;DHT22;32667;48.248;-1.700;2022-08-21T07:17:45;18.90;57.40
46926;DHT22;32667;48.248;-1.700;2022-08-21T07:20:11;18.80;57.40
46926;DHT22;32667;48.248;-1.700;2022-08-21T07:22:37;18.90;57.50
46926;DHT22;32667;48.248;-1.700;2022-08-21T07:25:04;18.90;57.30
46926;DHT22;32667;48.248;-1.700;2022-08-21T07:27:30;19.00;57.20
46926;DHT22;32667;48.248;-1.700;2022-08-21T07:29:59;19.00;57.20
46926;DHT22;32667;48.248;-1.700;2022-08-21T07:32:27;19.00;57.20
46926;DHT22;32667;48.248;-1.700;2022-08-21T07:34:53;19.00;57.20
46926;DHT22;32667;48.248;-1.700;2022-08-21T07:37:19;19.00;57.20
46926;DHT22;32667;48.248;-1.700;2022-08-21T07:39:45;19.10;57.30
46926;DHT22;32667;48.248;-1.700;2022-08-21T07:42:14;19.10;57.20
46926;DHT22;32667;48.248;-1.700;2022-08-21T07:44:40;19.00;57.30
46926;DHT22;32667;48.248;-1.700;2022-08-21T07:47:06;19.00;57.40
46926;DHT22;32667;48.248;-1.700;2022-08-21T07:49:32;19.00;57.50
46926;DHT22;32667;48.248;-1.700;2022-08-21T07:51:58;19.00;57.40
46926;DHT22;32667;48.248;-1.700;2022-08-21T07:54:26;19.10;57.50
46926;DHT22;32667;48.248;-1.700;2022-08-21T07:56:52;19.10;57.40
46926;DHT22;32667;48.248;-1.700;2022-08-21T07:59:18;19.20;57.30
46926;DHT22;32667;48.248;-1.700;2022-08-21T08:01:44;19.20;57.20
46926;DHT22;32667;48.248;-1.700;2022-08-21T08:04:09;19.30;57.20
46926;DHT22;32667;48.248;-1.700;2022-08-21T08:06:35;19.30;57.10
46926;DHT22;32667;48.248;-1.700;2022-08-21T08:09:02;19.30;57.20
46926;DHT22;32667;48.248;-1.700;2022-08-21T08:11:29;19.40;57.10
46926;DHT22;32667;48.248;-1.700;2022-08-21T08:13:55;19.40;57.00
46926;DHT22;32667;48.248;-1.700;2022-08-21T08:16:22;19.50;57.00
46926;DHT22;32667;48.248;-1.700;2022-08-21T08:18:48;19.60;56.90
46926;DHT22;32667;48.248;-1.700;2022-08-21T08:21:15;19.60;56.90
46926;DHT22;32667;48.248;-1.700;2022-08-21T08:23:41;19.60;56.80
46926;DHT22;32667;48.248;-1.700;2022-08-21T08:26:07;19.70;56.80
46926;DHT22;32667;48.248;-1.700;2022-08-21T08:28:33;19.80;56.80
46926;DHT22;32667;48.248;-1.700;2022-08-21T08:30:59;19.80;56.70
46926;DHT22;32667;48.248;-1.700;2022-08-21T08:33:26;19.90;56.60
46926;DHT22;32667;48.248;-1.700;2022-08-21T08:35:52;20.10;56.50
46926;DHT22;32667;48.248;-1.700;2022-08-21T08:38:19;20.20;56.30
46926;DHT22;32667;48.248;-1.700;2022-08-21T08:41:21;20.20;56.20
46926;DHT22;32667;48.248;-1.700;2022-08-21T08:43:50;20.30;56.20
46926;DHT22;32667;48.248;-1.700;2022-08-21T08:46:21;20.40;56.20
46926;DHT22;32667;48.248;-1.700;2022-08-21T08:49:02;20.40;56.10
46926;DHT22;32667;48.248;-1.700;2022-08-21T08:54:19;20.50;56.20
46926;DHT22;32667;48.248;-1.700;2022-08-21T08:56:47;20.50;56.20
46926;DHT22;32667;48.248;-1.700;2022-08-21T08:59:20;20.60;56.20
46926;DHT22;32667;48.248;-1.700;2022-08-21T09:01:48;20.60;56.10
46926;DHT22;32667;48.248;-1.700;2022-08-21T09:04:18;20.70;56.10
46926;DHT22;32667;48.248;-1.700;2022-08-21T09:07:10;20.70;56.20
46926;DHT22;32667;48.248;-1.700;2022-08-21T09:12:29;20.70;56.20
46926;DHT22;32667;48.248;-1.700;2022-08-21T09:15:12;20.80;56.10
46926;DHT22;32667;48.248;-1.700;2022-08-21T09:18:07;20.90;55.90
46926;DHT22;32667;48.248;-1.700;2022-08-21T09:26:19;21.10;55.80
46926;DHT22;32667;48.248;-1.700;2022-08-21T09:28:46;21.20;55.80
46926;DHT22;32667;48.248;-1.700;2022-08-21T09:31:25;21.20;55.80
46926;DHT22;32667;48.248;-1.700;2022-08-21T09:34:01;21.20;55.80
46926;DHT22;32667;48.248;-1.700;2022-08-21T09:36:48;21.40;55.80
46926;DHT22;32667;48.248;-1.700;2022-08-21T09:39:25;21.50;55.60
46926;DHT22;32667;48.248;-1.700;2022-08-21T09:42:03;21.50;55.50
46926;DHT22;32667;48.248;-1.700;2022-08-21T09:44:36;21.50;55.50
46926;DHT22;32667;48.248;-1.700;2022-08-21T09:47:10;21.50;55.60
46926;DHT22;32667;48.248;-1.700;2022-08-21T09:49:41;21.60;55.60
46926;DHT22;32667;48.248;-1.700;2022-08-21T09:52:18;21.60;55.50
46926;DHT22;32667;48.248;-1.700;2022-08-21T09:54:46;21.70;55.50
46926;DHT22;32667;48.248;-1.700;2022-08-21T09:57:18;21.70;55.40
46926;DHT22;32667;48.248;-1.700;2022-08-21T10:00:29;21.70;55.40
46926;DHT22;32667;48.248;-1.700;2022-08-21T10:03:10;21.60;55.60
46926;DHT22;32667;48.248;-1.700;2022-08-21T10:05:38;21.60;55.80
46926;DHT22;32667;48.248;-1.700;2022-08-21T10:08:04;21.70;55.80
46926;DHT22;32667;48.248;-1.700;2022-08-21T10:10:36;21.70;55.70
46926;DHT22;32667;48.248;-1.700;2022-08-21T10:13:17;21.60;55.80
46926;DHT22;32667;48.248;-1.700;2022-08-21T10:24:29;21.60;55.90
46926;DHT22;32667;48.248;-1.700;2022-08-21T10:35:26;21.60;56.10
46926;DHT22;32667;48.248;-1.700;2022-08-21T10:43:32;21.60;56.10
46926;DHT22;32667;48.248;-1.700;2022-08-21T10:52:06;21.70;55.90
46926;DHT22;32667;48.248;-1.700;2022-08-21T10:57:22;21.70;55.90
46926;DHT22;32667;48.248;-1.700;2022-08-21T10:59:57;21.60;56.00
46926;DHT22;32667;48.248;-1.700;2022-08-21T11:02:33;21.60;56.20
46926;DHT22;32667;48.248;-1.700;2022-08-21T11:05:17;21.50;56.20
46926;DHT22;32667;48.248;-1.700;2022-08-21T11:07:54;21.50;56.40
46926;DHT22;32667;48.248;-1.700;2022-08-21T11:10:37;21.40;56.40
46926;DHT22;32667;48.248;-1.700;2022-08-21T11:13:34;21.40;56.40
46926;DHT22;32667;48.248;-1.700;2022-08-21T11:16:12;21.40;56.50
46926;DHT22;32667;48.248;-1.700;2022-08-21T11:18:43;21.30;56.60
46926;DHT22;32667;48.248;-1.700;2022-08-21T11:29:39;21.20;56.90
46926;DHT22;32667;48.248;-1.700;2022-08-21T11:40:20;21.20;56.80
46926;DHT22;32667;48.248;-1.700;2022-08-21T11:51:36;21.00;57.00
46926;DHT22;32667;48.248;-1.700;2022-08-21T11:54:21;21.10;57.00
46926;DHT22;32667;48.248;-1.700;2022-08-21T12:00:26;21.00;57.00
46926;DHT22;32667;48.248;-1.700;2022-08-21T12:02:58;20.90;57.00
46926;DHT22;32667;48.248;-1.700;2022-08-21T12:05:38;20.80;57.20
46926;DHT22;32667;48.248;-1.700;2022-08-21T12:08:15;20.80;57.50
46926;DHT22;32667;48.248;-1.700;2022-08-21T12:16:37;20.90;57.30
46926;DHT22;32667;48.248;-1.700;2022-08-21T12:19:11;20.80;57.30
46926;DHT22;32667;48.248;-1.700;2022-08-21T12:24:35;20.70;57.40
46926;DHT22;32667;48.248;-1.700;2022-08-21T12:27:29;20.60;57.50
46926;DHT22;32667;48.248;-1.700;2022-08-21T12:30:06;20.50;57.70
46926;DHT22;32667;48.248;-1.700;2022-08-21T12:35:14;20.20;58.10
46926;DHT22;32667;48.248;-1.700;2022-08-21T12:37:41;20.20;58.20
46926;DHT22;32667;48.248;-1.700;2022-08-21T12:40:22;20.30;58.00
46926;DHT22;32667;48.248;-1.700;2022-08-21T12:42:51;20.40;57.80
46926;DHT22;32667;48.248;-1.700;2022-08-21T12:45:23;20.50;57.60
46926;DHT22;32667;48.248;-1.700;2022-08-21T12:53:27;20.80;57.10
46926;DHT22;32667;48.248;-1.700;2022-08-21T12:55:54;20.90;56.90
46926;DHT22;32667;48.248;-1.700;2022-08-21T12:58:25;20.90;56.90
46926;DHT22;32667;48.248;-1.700;2022-08-21T13:01:13;21.00;56.80
46926;DHT22;32667;48.248;-1.700;2022-08-21T13:03:43;21.00;56.80
46926;DHT22;32667;48.248;-1.700;2022-08-21T13:06:14;21.00;56.70
46926;DHT22;32667;48.248;-1.700;2022-08-21T13:08:43;21.10;56.80
46926;DHT22;32667;48.248;-1.700;2022-08-21T13:11:10;21.10;56.70
46926;DHT22;32667;48.248;-1.700;2022-08-21T13:13:38;21.20;56.60
46926;DHT22;32667;48.248;-1.700;2022-08-21T13:16:07;21.30;56.50
46926;DHT22;32667;48.248;-1.700;2022-08-21T13:18:39;21.30;56.50
46926;DHT22;32667;48.248;-1.700;2022-08-21T13:21:16;21.30;56.60
46926;DHT22;32667;48.248;-1.700;2022-08-21T13:23:42;21.20;56.70
46926;DHT22;32667;48.248;-1.700;2022-08-21T13:26:15;21.20;56.70
46926;DHT22;32667;48.248;-1.700;2022-08-21T13:28:41;21.20;57.40
46926;DHT22;32667;48.248;-1.700;2022-08-21T13:31:10;21.20;56.90
46926;DHT22;32667;48.248;-1.700;2022-08-21T13:33:37;21.20;57.00
46926;DHT22;32667;48.248;-1.700;2022-08-21T13:36:16;21.20;57.10
46926;DHT22;32667;48.248;-1.700;2022-08-21T13:39:07;21.20;57.10
46926;DHT22;32667;48.248;-1.700;2022-08-21T13:41:39;21.30;57.00
46926;DHT22;32667;48.248;-1.700;2022-08-21T13:44:22;21.30;56.80
46926;DHT22;32667;48.248;-1.700;2022-08-21T13:46:52;21.40;56.60
46926;DHT22;32667;48.248;-1.700;2022-08-21T13:49:20;21.40;56.70
46926;DHT22;32667;48.248;-1.700;2022-08-21T13:51:48;21.50;56.70
46926;DHT22;32667;48.248;-1.700;2022-08-21T13:54:22;21.50;56.60
46926;DHT22;32667;48.248;-1.700;2022-08-21T13:56:49;21.60;56.60
46926;DHT22;32667;48.248;-1.700;2022-08-21T13:59:34;21.70;56.50
46926;DHT22;32667;48.248;-1.700;2022-08-21T14:02:01;21.70;56.40
46926;DHT22;32667;48.248;-1.700;2022-08-21T14:05:02;21.80;56.40
46926;DHT22;32667;48.248;-1.700;2022-08-21T14:07:38;21.80;56.30
46926;DHT22;32667;48.248;-1.700;2022-08-21T14:10:06;21.80;56.30
46926;DHT22;32667;48.248;-1.700;2022-08-21T14:12:38;21.80;56.50
46926;DHT22;32667;48.248;-1.700;2022-08-21T14:15:06;21.80;56.50
46926;DHT22;32667;48.248;-1.700;2022-08-21T14:17:35;21.80;56.50
46926;DHT22;32667;48.248;-1.700;2022-08-21T14:20:05;21.80;56.60
46926;DHT22;32667;48.248;-1.700;2022-08-21T14:22:39;21.80;56.60
46926;DHT22;32667;48.248;-1.700;2022-08-21T14:25:12;21.80;57.30
46926;DHT22;32667;48.248;-1.700;2022-08-21T14:28:03;21.70;56.70
46926;DHT22;32667;48.248;-1.700;2022-08-21T14:30:40;21.60;56.90
46926;DHT22;32667;48.248;-1.700;2022-08-21T14:33:11;21.50;57.00
46926;DHT22;32667;48.248;-1.700;2022-08-21T14:35:38;21.50;57.20
46926;DHT22;32667;48.248;-1.700;2022-08-21T14:38:15;21.40;57.20
46926;DHT22;32667;48.248;-1.700;2022-08-21T14:40:43;21.40;57.30
46926;DHT22;32667;48.248;-1.700;2022-08-21T14:43:10;21.40;57.30
46926;DHT22;32667;48.248;-1.700;2022-08-21T14:45:36;21.30;57.30
46926;DHT22;32667;48.248;-1.700;2022-08-21T14:48:04;21.30;57.40
46926;DHT22;32667;48.248;-1.700;2022-08-21T14:50:30;21.30;57.40
46926;DHT22;32667;48.248;-1.700;2022-08-21T14:52:56;21.30;57.30
46926;DHT22;32667;48.248;-1.700;2022-08-21T14:55:21;21.40;57.80
46926;DHT22;32667;48.248;-1.700;2022-08-21T14:57:50;21.50;57.20
46926;DHT22;32667;48.248;-1.700;2022-08-21T15:00:19;21.50;57.10
46926;DHT22;32667;48.248;-1.700;2022-08-21T15:02:45;21.50;57.10
46926;DHT22;32667;48.248;-1.700;2022-08-21T15:05:12;21.40;57.20
46926;DHT22;32667;48.248;-1.700;2022-08-21T15:07:38;21.40;57.20
46926;DHT22;32667;48.248;-1.700;2022-08-21T15:10:06;21.40;57.20
46926;DHT22;32667;48.248;-1.700;2022-08-21T15:12:32;21.50;57.20
46926;DHT22;32667;48.248;-1.700;2022-08-21T15:14:58;21.50;57.10
46926;DHT22;32667;48.248;-1.700;2022-08-21T15:17:24;21.50;57.00
46926;DHT22;32667;48.248;-1.700;2022-08-21T15:19:50;21.60;56.90
46926;DHT22;32667;48.248;-1.700;2022-08-21T15:22:16;21.60;56.90
46926;DHT22;32667;48.248;-1.700;2022-08-21T15:24:42;21.60;56.90
46926;DHT22;32667;48.248;-1.700;2022-08-21T15:27:09;21.60;56.90
46926;DHT22;32667;48.248;-1.700;2022-08-21T15:29:36;21.50;57.00
46926;DHT22;32667;48.248;-1.700;2022-08-21T15:32:19;21.50;57.00
46926;DHT22;32667;48.248;-1.700;2022-08-21T15:34:45;21.40;57.00
46926;DHT22;32667;48.248;-1.700;2022-08-21T15:37:10;21.40;57.10
46926;DHT22;32667;48.248;-1.700;2022-08-21T15:39:36;21.30;57.20
46926;DHT22;32667;48.248;-1.700;2022-08-21T15:42:02;21.20;57.40
46926;DHT22;32667;48.248;-1.700;2022-08-21T15:44:28;21.10;57.60
46926;DHT22;32667;48.248;-1.700;2022-08-21T15:46:55;21.10;57.60
46926;DHT22;32667;48.248;-1.700;2022-08-21T15:49:23;21.10;57.60
46926;DHT22;32667;48.248;-1.700;2022-08-21T15:51:49;21.00;57.70
46926;DHT22;32667;48.248;-1.700;2022-08-21T15:54:15;20.90;57.90
46926;DHT22;32667;48.248;-1.700;2022-08-21T15:56:44;20.80;58.10
46926;DHT22;32667;48.248;-1.700;2022-08-21T15:59:18;20.80;58.80
46926;DHT22;32667;48.248;-1.700;2022-08-21T16:01:45;20.80;58.10
46926;DHT22;32667;48.248;-1.700;2022-08-21T16:04:18;20.70;58.10
46926;DHT22;32667;48.248;-1.700;2022-08-21T16:06:45;20.70;58.20
46926;DHT22;32667;48.248;-1.700;2022-08-21T16:09:10;20.60;58.30
46926;DHT22;32667;48.248;-1.700;2022-08-21T16:11:36;20.60;58.40
46926;DHT22;32667;48.248;-1.700;2022-08-21T16:14:03;20.50;58.40
46926;DHT22;32667;48.248;-1.700;2022-08-21T16:16:30;20.60;58.40
46926;DHT22;32667;48.248;-1.700;2022-08-21T16:18:58;20.60;58.20
46926;DHT22;32667;48.248;-1.700;2022-08-21T16:21:24;20.80;58.00
46926;DHT22;32667;48.248;-1.700;2022-08-21T16:23:50;20.80;57.90
46926;DHT22;32667;48.248;-1.700;2022-08-21T16:26:16;20.90;57.90
46926;DHT22;32667;48.248;-1.700;2022-08-21T16:28:43;20.90;57.80
46926;DHT22;32667;48.248;-1.700;2022-08-21T16:31:11;20.80;57.80
46926;DHT22;32667;48.248;-1.700;2022-08-21T16:33:41;20.70;57.90
46926;DHT22;32667;48.248;-1.700;2022-08-21T16:36:10;20.60;58.10
46926;DHT22;32667;48.248;-1.700;2022-08-21T16:38:36;20.60;58.20
46926;DHT22;32667;48.248;-1.700;2022-08-21T16:41:04;20.50;58.20
46926;DHT22;32667;48.248;-1.700;2022-08-21T16:43:32;20.60;58.20
46926;DHT22;32667;48.248;-1.700;2022-08-21T16:45:59;20.60;58.10
46926;DHT22;32667;48.248;-1.700;2022-08-21T16:48:26;20.70;58.00
46926;DHT22;32667;48.248;-1.700;2022-08-21T16:50:54;20.70;58.00
46926;DHT22;32667;48.248;-1.700;2022-08-21T16:53:20;20.70;57.90
46926;DHT22;32667;48.248;-1.700;2022-08-21T16:55:52;20.70;57.90